createdAt,value
2018-12-21T00:01:21.930Z,-1.20
2018-12-21T00:03:50.511Z,-1.20
2018-12-21T00:06:17.295Z,-1.20
2018-12-21T00:08:45.100Z,-1.10
2018-12-21T00:11:12.289Z,-1.20
2018-12-21T00:13:39.486Z,-1.20
2018-12-21T00:16:06.330Z,-1.10
2018-12-21T00:18:33.952Z,-1.20
2018-12-21T00:21:00.670Z,-1.20
2018-12-21T00:23:27.374Z,-1.20
2018-12-21T00:25:54.124Z,-1.20
2018-12-21T00:28:21.291Z,-1.10
2018-12-21T00:30:47.923Z,-1.10
2018-12-21T00:33:20.758Z,-1.10
2018-12-21T00:35:54.174Z,-1.10
2018-12-21T00:38:27.036Z,-1.10
2018-12-21T00:41:00.458Z,-1.10
2018-12-21T00:43:27.287Z,-1.10
2018-12-21T00:45:54.938Z,-1.20
2018-12-21T00:48:22.371Z,-1.20
2018-12-21T00:50:49.169Z,-1.20
2018-12-21T00:53:15.888Z,-1.20
2018-12-21T00:55:42.747Z,-1.20
2018-12-21T00:58:10.195Z,-1.20
2018-12-21T01:00:36.866Z,-1.20
2018-12-21T01:03:03.564Z,-1.20
2018-12-21T01:05:31.056Z,-1.10
2018-12-21T01:07:57.726Z,-1.20
2018-12-21T01:10:24.457Z,-1.10
2018-12-21T01:12:51.350Z,-1.10
2018-12-21T01:15:18.120Z,-1.10
2018-12-21T01:17:44.929Z,-1.10
2018-12-21T01:20:11.674Z,-1.10
2018-12-21T01:22:38.462Z,-1.10
2018-12-21T01:25:05.226Z,-1.20
2018-12-21T01:27:32.029Z,-1.10
2018-12-21T01:29:59.141Z,-1.10
2018-12-21T01:32:25.817Z,-1.10
2018-12-21T01:34:52.849Z,-1.10
2018-12-21T01:37:19.800Z,-1.10
2018-12-21T01:39:46.571Z,-1.10
2018-12-21T01:42:13.506Z,-1.10
2018-12-21T01:44:40.195Z,-1.10
2018-12-21T01:47:07.678Z,-1.10
2018-12-21T01:49:34.357Z,-1.20
2018-12-21T01:52:01.072Z,-1.10
2018-12-21T01:54:27.850Z,-1.10
2018-12-21T01:56:54.641Z,-1.10
2018-12-21T01:59:21.361Z,-1.10
2018-12-21T02:01:48.291Z,-1.10
2018-12-21T02:04:15.766Z,-1.10
2018-12-21T02:06:42.508Z,-1.10
2018-12-21T02:09:09.251Z,-1.10
2018-12-21T02:11:35.929Z,-1.20
2018-12-21T02:14:02.663Z,-1.10
2018-12-21T02:16:29.501Z,-1.10
2018-12-21T02:18:56.323Z,-1.10
2018-12-21T02:21:23.078Z,-1.10
2018-12-21T02:23:50.031Z,-1.00
2018-12-21T02:26:16.782Z,-1.10
2018-12-21T02:28:43.594Z,-1.10
2018-12-21T02:31:10.429Z,-1.10
2018-12-21T02:33:37.131Z,-1.10
2018-12-21T02:36:04.949Z,-1.00
2018-12-21T02:38:31.723Z,-1.10
2018-12-21T02:40:58.487Z,-1.00
2018-12-21T02:43:25.987Z,-1.00
2018-12-21T02:45:52.760Z,-1.00
2018-12-21T02:48:20.247Z,-1.00
2018-12-21T02:50:46.935Z,-1.00
2018-12-21T02:53:13.724Z,-1.10
2018-12-21T02:55:41.165Z,-1.10
2018-12-21T02:58:07.856Z,-1.10
2018-12-21T03:00:34.664Z,-1.20
2018-12-21T03:03:01.778Z,-1.20
2018-12-21T03:05:28.460Z,-1.20
2018-12-21T03:07:55.977Z,-1.20
2018-12-21T03:10:22.668Z,-1.20
2018-12-21T03:12:49.530Z,-1.20
2018-12-21T03:15:16.302Z,-1.30
2018-12-21T03:17:43.049Z,-1.30
2018-12-21T03:20:16.913Z,-1.30
2018-12-21T03:22:43.646Z,-1.40
2018-12-21T03:25:10.385Z,-1.40
2018-12-21T03:27:37.123Z,-1.40
2018-12-21T03:30:04.680Z,-1.40
2018-12-21T03:32:32.175Z,-1.30
2018-12-21T03:34:58.970Z,-1.40
2018-12-21T03:37:26.382Z,-1.30
2018-12-21T03:39:53.058Z,-1.40
2018-12-21T03:42:20.579Z,-1.30
2018-12-21T03:44:47.270Z,-1.30
2018-12-21T03:47:14.714Z,-1.40
2018-12-21T03:49:41.428Z,-1.40
2018-12-21T03:52:08.127Z,-1.40
2018-12-21T03:54:34.833Z,-1.30
2018-12-21T03:57:02.328Z,-1.40
2018-12-21T03:59:29.177Z,-1.50
2018-12-21T04:01:55.871Z,-1.50
2018-12-21T04:04:23.216Z,-1.40
2018-12-21T04:06:50.110Z,-1.40
2018-12-21T04:09:18.162Z,-1.40
2018-12-21T04:11:45.680Z,-1.40
2018-12-21T04:14:12.393Z,-1.50
2018-12-21T04:16:39.197Z,-1.40
2018-12-21T04:19:05.940Z,-1.40
2018-12-21T04:21:32.646Z,-1.40
2018-12-21T04:23:59.489Z,-1.40
2018-12-21T04:26:26.193Z,-1.40
2018-12-21T04:28:52.908Z,-1.50
2018-12-21T04:31:20.398Z,-1.40
2018-12-21T04:33:47.073Z,-1.50
2018-12-21T04:36:13.785Z,-1.50
2018-12-21T04:38:40.569Z,-1.40
2018-12-21T04:41:08.021Z,-1.50
2018-12-21T04:43:34.705Z,-1.50
2018-12-21T04:46:01.495Z,-1.40
2018-12-21T04:48:28.969Z,-1.50
2018-12-21T04:50:56.478Z,-1.50
2018-12-21T04:53:23.304Z,-1.50
2018-12-21T04:55:50.144Z,-1.40
2018-12-21T04:58:16.964Z,-1.50
2018-12-21T05:00:43.835Z,-1.50
2018-12-21T05:03:11.204Z,-1.60
2018-12-21T05:05:39.537Z,-1.50
2018-12-21T05:08:04.799Z,-1.50
2018-12-21T05:10:31.723Z,-1.50
2018-12-21T05:12:58.420Z,-1.50
2018-12-21T05:15:25.787Z,-1.50
2018-12-21T05:17:52.505Z,-1.50
2018-12-21T05:20:19.957Z,-1.60
2018-12-21T05:22:52.202Z,-1.50
2018-12-21T05:25:13.868Z,-1.60
2018-12-21T05:27:40.615Z,-1.60
2018-12-21T05:30:07.390Z,-1.60
2018-12-21T05:32:34.111Z,-1.50
2018-12-21T05:35:04.315Z,-1.50
2018-12-21T05:37:31.017Z,-1.40
2018-12-21T05:39:57.893Z,-1.40
2018-12-21T05:42:24.781Z,-1.50
2018-12-21T05:44:51.446Z,-1.60
2018-12-21T05:47:18.102Z,-1.60
2018-12-21T05:49:45.544Z,-1.60
2018-12-21T05:52:12.213Z,-1.60
2018-12-21T05:54:40.260Z,-1.80
2018-12-21T05:57:06.952Z,-1.80
2018-12-21T05:59:33.620Z,-1.80
2018-12-21T06:02:00.957Z,-1.80
2018-12-21T06:04:27.890Z,-1.70
2018-12-21T06:06:58.519Z,-1.70
2018-12-21T06:09:25.653Z,-1.70
2018-12-21T06:11:52.344Z,-1.70
2018-12-21T06:14:19.040Z,-1.70
2018-12-21T06:16:48.157Z,-1.80
2018-12-21T06:19:14.858Z,-1.70
2018-12-21T06:21:42.357Z,-1.80
2018-12-21T06:24:09.928Z,-1.70
2018-12-21T06:26:36.649Z,-1.80
2018-12-21T06:29:03.441Z,-1.70
2018-12-21T06:31:30.337Z,-1.60
2018-12-21T06:33:57.012Z,-1.70
2018-12-21T06:36:23.772Z,-1.70
2018-12-21T06:38:51.206Z,-1.70
2018-12-21T06:41:17.932Z,-1.70
2018-12-21T06:43:44.626Z,-1.80
2018-12-21T06:46:14.278Z,-1.80
2018-12-21T06:48:38.293Z,-1.80
2018-12-21T06:51:05.755Z,-1.80
2018-12-21T06:53:33.224Z,-1.70
2018-12-21T06:56:00.062Z,-1.70
2018-12-21T06:58:27.485Z,-1.60
2018-12-21T07:00:54.945Z,-1.70
2018-12-21T07:03:21.654Z,-1.70
2018-12-21T07:05:48.322Z,-1.70
2018-12-21T07:08:15.014Z,-1.60
2018-12-21T07:10:41.791Z,-1.60
2018-12-21T07:13:08.487Z,-1.70
2018-12-21T07:15:35.337Z,-1.60
2018-12-21T07:18:02.832Z,-1.70
2018-12-21T07:20:29.495Z,-1.70
2018-12-21T07:22:57.079Z,-1.70
2018-12-21T07:25:24.003Z,-1.80
2018-12-21T07:27:51.560Z,-1.70
2018-12-21T07:30:18.222Z,-1.70
2018-12-21T07:32:45.699Z,-1.60
2018-12-21T07:35:13.624Z,-1.70
2018-12-21T07:37:41.060Z,-1.60
2018-12-21T07:40:07.924Z,-1.60
2018-12-21T07:42:35.362Z,-1.60
2018-12-21T07:45:02.114Z,-1.60
2018-12-21T07:47:28.910Z,-1.60
2018-12-21T07:49:55.557Z,-1.70
2018-12-21T07:52:22.208Z,-1.60
2018-12-21T07:54:48.959Z,-1.60
2018-12-21T07:57:15.954Z,-1.60
2018-12-21T07:59:42.633Z,-1.50
2018-12-21T08:02:09.338Z,-1.40
2018-12-21T08:04:36.007Z,-1.40
2018-12-21T08:07:02.661Z,-1.50
2018-12-21T08:09:29.419Z,-1.50
2018-12-21T08:11:56.106Z,-1.50
2018-12-21T08:14:22.770Z,-1.50
2018-12-21T08:16:49.515Z,-1.50
2018-12-21T08:19:16.233Z,-1.50
2018-12-21T08:21:42.900Z,-1.50
2018-12-21T08:24:09.616Z,-1.40
2018-12-21T08:26:37.072Z,-1.40
2018-12-21T08:29:03.744Z,-1.40
2018-12-21T08:31:30.664Z,-1.40
2018-12-21T08:33:57.375Z,-1.50
2018-12-21T08:36:25.034Z,-1.40
2018-12-21T08:38:51.809Z,-1.50
2018-12-21T08:41:18.563Z,-1.50
2018-12-21T08:43:45.232Z,-1.50
2018-12-21T08:46:11.973Z,-1.50
2018-12-21T08:48:39.447Z,-1.40
2018-12-21T08:51:06.236Z,-1.40
2018-12-21T08:53:33.045Z,-1.50
2018-12-21T08:55:59.788Z,-1.50
2018-12-21T08:58:26.599Z,-1.50
2018-12-21T09:00:54.053Z,-1.50
2018-12-21T09:03:21.587Z,-1.50
2018-12-21T09:05:48.367Z,-1.50
2018-12-21T09:08:15.085Z,-1.60
2018-12-21T09:10:42.657Z,-1.50
2018-12-21T09:13:10.161Z,-1.50
2018-12-21T09:15:36.819Z,-1.50
2018-12-21T09:18:03.537Z,-1.40
2018-12-21T09:20:30.267Z,-1.50
2018-12-21T09:22:57.078Z,-1.50
2018-12-21T09:25:23.828Z,-1.50
2018-12-21T09:27:50.644Z,-1.50
2018-12-21T09:30:17.331Z,-1.60
2018-12-21T09:32:44.027Z,-1.50
2018-12-21T09:35:10.796Z,-1.60
2018-12-21T09:37:38.671Z,-1.50
2018-12-21T09:40:05.402Z,-1.50
2018-12-21T09:42:32.142Z,-1.40
2018-12-21T09:44:59.919Z,-1.40
2018-12-21T09:47:26.638Z,-1.40
2018-12-21T09:49:53.384Z,-1.50
2018-12-21T09:52:20.083Z,-1.40
2018-12-21T09:54:46.778Z,-1.30
2018-12-21T09:57:13.524Z,-1.30
2018-12-21T09:59:40.254Z,-1.40
2018-12-21T10:02:07.004Z,-1.50
2018-12-21T10:04:33.762Z,-1.50
2018-12-21T10:07:00.443Z,-1.40
2018-12-21T10:09:27.833Z,-1.30
2018-12-21T10:11:55.172Z,-1.40
2018-12-21T10:14:22.647Z,-1.30
2018-12-21T10:16:49.424Z,-1.40
2018-12-21T10:19:16.202Z,-1.40
2018-12-21T10:21:43.622Z,-1.10
2018-12-21T10:24:18.280Z,-1.20
2018-12-21T10:26:37.068Z,-1.20
2018-12-21T10:29:03.765Z,-1.20
2018-12-21T10:31:31.530Z,-1.20
2018-12-21T10:33:58.273Z,-1.20
2018-12-21T10:36:25.691Z,-1.20
2018-12-21T10:38:52.391Z,-1.20
2018-12-21T10:41:19.096Z,-1.40
2018-12-21T10:43:45.781Z,-1.30
2018-12-21T10:46:12.662Z,-1.30
2018-12-21T10:48:39.350Z,-1.30
2018-12-21T10:51:06.766Z,-1.20
2018-12-21T10:53:34.281Z,-1.40
2018-12-21T10:56:00.998Z,-1.40
2018-12-21T10:58:27.810Z,-1.40
2018-12-21T11:00:54.614Z,-1.30
2018-12-21T11:03:21.344Z,-1.30
2018-12-21T11:05:47.993Z,-1.30
2018-12-21T11:08:14.728Z,-1.40
2018-12-21T11:10:41.374Z,-1.30
2018-12-21T11:13:08.042Z,-1.40
2018-12-21T11:15:34.803Z,-1.20
2018-12-21T11:18:01.516Z,-1.20
2018-12-21T11:20:28.494Z,-1.30
2018-12-21T11:22:56.239Z,-1.40
2018-12-21T11:25:22.938Z,-1.40
2018-12-21T11:27:49.729Z,-1.40
2018-12-21T11:30:16.536Z,-1.40
2018-12-21T11:32:43.271Z,-1.40
2018-12-21T11:35:10.041Z,-1.40
2018-12-21T11:37:37.004Z,-1.40
2018-12-21T11:40:04.099Z,-1.40
2018-12-21T11:42:31.601Z,-1.30
2018-12-21T11:44:58.583Z,-1.20
2018-12-21T11:47:25.436Z,-1.30
2018-12-21T11:49:52.213Z,-1.30
2018-12-21T11:52:19.057Z,-1.30
2018-12-21T11:54:45.778Z,-1.30
2018-12-21T11:57:12.938Z,-1.20
2018-12-21T11:59:44.905Z,-1.20
2018-12-21T12:02:06.673Z,-1.10
2018-12-21T12:04:35.259Z,-1.20
2018-12-21T12:07:02.998Z,-1.20
2018-12-21T12:09:29.689Z,-1.20
2018-12-21T12:11:56.721Z,-1.20
2018-12-21T12:14:24.095Z,-1.20
2018-12-21T12:16:59.444Z,-1.30
2018-12-21T12:19:26.561Z,-1.20
2018-12-21T12:21:53.375Z,-1.20
2018-12-21T12:24:20.854Z,-1.10
2018-12-21T12:26:48.395Z,-1.10
2018-12-21T12:29:15.123Z,-1.10
2018-12-21T12:31:42.999Z,-1.10
2018-12-21T12:34:08.914Z,-1.10
2018-12-21T12:36:36.484Z,-1.20
2018-12-21T12:39:04.596Z,-1.10
2018-12-21T12:41:31.941Z,-1.20
2018-12-21T12:43:58.643Z,-1.10
2018-12-21T12:46:25.382Z,-1.20
2018-12-21T12:48:52.247Z,-1.10
2018-12-21T12:51:19.059Z,-1.20
2018-12-21T12:53:46.550Z,-1.10
2018-12-21T12:56:14.135Z,-1.20
2018-12-21T12:58:40.945Z,-1.20
2018-12-21T13:01:07.750Z,-1.10
2018-12-21T13:03:34.665Z,-1.10
2018-12-21T13:06:01.515Z,-1.10
2018-12-21T13:08:28.214Z,-1.10
2018-12-21T13:10:55.712Z,-1.20
2018-12-21T13:13:22.460Z,-1.20
2018-12-21T13:15:49.264Z,-1.20
2018-12-21T13:18:16.851Z,-1.30
2018-12-21T13:20:43.590Z,-1.30
2018-12-21T13:23:10.383Z,-1.30
2018-12-21T13:25:37.058Z,-1.30
2018-12-21T13:28:03.859Z,-1.30
2018-12-21T13:30:30.572Z,-1.40
2018-12-21T13:32:57.329Z,-1.40
2018-12-21T13:35:24.113Z,-1.40
2018-12-21T13:37:50.837Z,-1.40
2018-12-21T13:40:18.332Z,-1.30
2018-12-21T13:42:45.097Z,-1.40
2018-12-21T13:45:11.841Z,-1.40
2018-12-21T13:47:38.616Z,-1.50
2018-12-21T13:50:05.417Z,-1.50
2018-12-21T13:52:32.240Z,-1.40
2018-12-21T13:54:59.068Z,-1.40
2018-12-21T13:57:25.850Z,-1.60
2018-12-21T13:59:52.627Z,-1.60
2018-12-21T14:02:19.421Z,-1.50
2018-12-21T14:04:46.155Z,-1.50
2018-12-21T14:07:13.067Z,-1.60
2018-12-21T14:09:40.498Z,-1.60
2018-12-21T14:12:07.218Z,-1.70
2018-12-21T14:14:35.573Z,-1.60
2018-12-21T14:17:01.005Z,-1.60
2018-12-21T14:19:27.727Z,-1.50
2018-12-21T14:21:54.525Z,-1.60
2018-12-21T14:24:21.279Z,-1.50
2018-12-21T14:26:48.998Z,-1.60
2018-12-21T14:29:15.769Z,-1.60
2018-12-21T14:31:42.569Z,-1.50
2018-12-21T14:34:10.068Z,-1.50
2018-12-21T14:36:37.621Z,-1.50
2018-12-21T14:39:05.109Z,-1.50
2018-12-21T14:41:31.858Z,-1.60
2018-12-21T14:43:58.590Z,-1.50
2018-12-21T14:46:25.297Z,-1.50
2018-12-21T14:48:52.040Z,-1.60
2018-12-21T14:51:18.794Z,-1.60
2018-12-21T14:53:46.438Z,-1.60
2018-12-21T14:56:13.203Z,-1.60
2018-12-21T14:58:40.683Z,-1.80
2018-12-21T15:01:07.435Z,-1.80
2018-12-21T15:03:34.159Z,-1.70
2018-12-21T15:06:00.961Z,-1.70
2018-12-21T15:08:27.803Z,-1.70
2018-12-21T15:10:55.322Z,-1.70
2018-12-21T15:13:22.046Z,-1.70
2018-12-21T15:15:49.000Z,-1.70
2018-12-21T15:18:15.712Z,-1.70
2018-12-21T15:20:43.129Z,-1.60
2018-12-21T15:23:09.828Z,-1.70
2018-12-21T15:25:36.582Z,-1.80
2018-12-21T15:28:03.293Z,-1.70
2018-12-21T15:30:30.730Z,-1.60
2018-12-21T15:32:58.359Z,-1.60
2018-12-21T15:35:25.875Z,-1.60
2018-12-21T15:37:52.828Z,-1.60
2018-12-21T15:40:19.630Z,-1.70
2018-12-21T15:42:47.083Z,-1.70
2018-12-21T15:45:14.023Z,-1.70
2018-12-21T15:47:40.785Z,-1.70
2018-12-21T15:50:08.498Z,-1.70
2018-12-21T15:52:35.171Z,-1.70
2018-12-21T15:55:02.021Z,-1.60
2018-12-21T15:57:29.413Z,-1.60
2018-12-21T15:59:56.493Z,-1.70
2018-12-21T16:02:23.325Z,-1.60
2018-12-21T16:04:50.019Z,-1.70
2018-12-21T16:07:17.722Z,-1.70
2018-12-21T16:09:44.533Z,-1.70
2018-12-21T16:12:11.670Z,-1.70
2018-12-21T16:14:39.159Z,-1.70
2018-12-21T16:17:06.678Z,-1.70
2018-12-21T16:19:34.093Z,-1.70
2018-12-21T16:22:03.982Z,-1.80
2018-12-21T16:24:32.668Z,-1.70
2018-12-21T16:26:59.895Z,-1.70
2018-12-21T16:29:27.767Z,-1.80
2018-12-21T16:31:55.603Z,-1.70
2018-12-21T16:34:22.449Z,-1.80
2018-12-21T16:36:49.529Z,-1.80
2018-12-21T16:39:16.528Z,-1.80
2018-12-21T16:41:43.612Z,-1.80
2018-12-21T16:44:11.357Z,-1.80
2018-12-21T16:46:38.867Z,-1.80
2018-12-21T16:49:05.548Z,-1.90
2018-12-21T16:51:32.296Z,-1.70
2018-12-21T16:53:59.035Z,-1.80
2018-12-21T16:56:25.909Z,-1.80
2018-12-21T16:58:53.351Z,-1.70
2018-12-21T17:01:20.782Z,-1.70
2018-12-21T17:03:47.804Z,-1.70
2018-12-21T17:06:14.468Z,-1.70
2018-12-21T17:08:41.123Z,-1.70
2018-12-21T17:11:07.962Z,-1.70
2018-12-21T17:13:35.419Z,-1.70
2018-12-21T17:16:02.118Z,-1.70
2018-12-21T17:18:28.893Z,-1.70
2018-12-21T17:20:55.726Z,-1.70
2018-12-21T17:23:22.462Z,-1.70
2018-12-21T17:25:50.127Z,-1.80
2018-12-21T17:28:16.827Z,-1.80
2018-12-21T17:30:43.785Z,-2.00
2018-12-21T17:33:10.548Z,-1.90
2018-12-21T17:35:37.557Z,-1.80
2018-12-21T17:38:04.084Z,-1.80
2018-12-21T17:40:32.173Z,-1.80
2018-12-21T17:42:59.555Z,-1.90
2018-12-21T17:45:26.235Z,-1.90
2018-12-21T17:47:53.726Z,-2.10
2018-12-21T17:50:20.481Z,-2.00
2018-12-21T17:52:47.870Z,-1.90
2018-12-21T17:55:15.013Z,-2.00
2018-12-21T17:57:42.521Z,-2.10
2018-12-21T18:00:10.058Z,-2.10
2018-12-21T18:02:37.535Z,-2.10
2018-12-21T18:05:04.978Z,-2.00
2018-12-21T18:07:32.432Z,-2.10
2018-12-21T18:09:59.943Z,-2.10
2018-12-21T18:12:26.624Z,-2.10
2018-12-21T18:14:54.493Z,-2.10
2018-12-21T18:17:21.271Z,-2.10
2018-12-21T18:19:48.814Z,-2.10
2018-12-21T18:22:15.740Z,-2.10
2018-12-21T18:24:43.306Z,-1.90
2018-12-21T18:27:11.460Z,-2.00
2018-12-21T18:29:38.249Z,-1.90
2018-12-21T18:32:05.353Z,-2.00
2018-12-21T18:34:32.047Z,-2.00
2018-12-21T18:36:58.880Z,-2.10
2018-12-21T18:39:25.732Z,-2.10
2018-12-21T18:41:52.475Z,-2.10
2018-12-21T18:44:19.128Z,-2.00
2018-12-21T18:46:55.403Z,-2.00
2018-12-21T18:49:24.303Z,-2.10
2018-12-21T18:51:51.828Z,-2.00
2018-12-21T18:54:18.508Z,-2.00
2018-12-21T18:56:47.313Z,-1.90
2018-12-21T18:59:12.878Z,-2.00
2018-12-21T19:01:39.608Z,-2.10
2018-12-21T19:04:06.872Z,-2.10
2018-12-21T19:06:34.794Z,-2.20
2018-12-21T19:09:01.733Z,-2.20
2018-12-21T19:11:28.444Z,-2.20
2018-12-21T19:13:55.612Z,-2.20
2018-12-21T19:16:23.195Z,-2.20
2018-12-21T19:18:50.051Z,-2.10
2018-12-21T19:21:16.986Z,-2.10
2018-12-21T19:23:43.819Z,-2.10
2018-12-21T19:26:10.581Z,-2.10
2018-12-21T19:28:37.282Z,-2.10
2018-12-21T19:31:03.981Z,-2.00
2018-12-21T19:33:30.765Z,-2.10
2018-12-21T19:35:57.436Z,-2.20
2018-12-21T19:38:24.396Z,-2.20
2018-12-21T19:40:51.467Z,-2.20
2018-12-21T19:43:18.545Z,-2.30
2018-12-21T19:45:45.719Z,-2.30
2018-12-21T19:48:13.370Z,-2.30
2018-12-21T19:50:41.070Z,-2.30
2018-12-21T19:53:08.487Z,-2.30
2018-12-21T19:55:37.181Z,-2.40
2018-12-21T19:58:04.249Z,-2.40
2018-12-21T20:00:31.073Z,-2.30
2018-12-21T20:02:59.024Z,-2.20
2018-12-21T20:05:26.210Z,-2.20
2018-12-21T20:07:52.952Z,-2.20
2018-12-21T20:10:19.637Z,-2.20
2018-12-21T20:12:46.304Z,-2.20
2018-12-21T20:15:13.731Z,-2.20
2018-12-21T20:17:40.470Z,-2.20
2018-12-21T20:20:07.263Z,-2.20
2018-12-21T20:22:34.724Z,-2.20
2018-12-21T20:25:01.458Z,-2.20
2018-12-21T20:27:28.196Z,-2.20
2018-12-21T20:29:54.846Z,-2.20
2018-12-21T20:32:22.000Z,-2.20
2018-12-21T20:34:48.376Z,-2.20
2018-12-21T20:37:15.072Z,-2.20
2018-12-21T20:39:41.839Z,-2.10
2018-12-21T20:42:09.366Z,-2.20
2018-12-21T20:44:36.306Z,-2.20
2018-12-21T20:47:04.680Z,-2.20
2018-12-21T20:49:32.033Z,-2.30
2018-12-21T20:52:00.768Z,-2.20
2018-12-21T20:54:28.040Z,-2.20
2018-12-21T20:56:55.250Z,-2.10
2018-12-21T20:59:22.343Z,-2.10
2018-12-21T21:01:49.605Z,-2.20
2018-12-21T21:04:17.479Z,-2.10
2018-12-21T21:06:44.701Z,-2.10
2018-12-21T21:09:12.915Z,-2.20
2018-12-21T21:11:41.758Z,-2.20
2018-12-21T21:14:08.877Z,-2.30
2018-12-21T21:16:35.706Z,-2.20
2018-12-21T21:19:03.081Z,-2.30
2018-12-21T21:21:30.179Z,-2.30
2018-12-21T21:23:57.274Z,-2.30
2018-12-21T21:26:24.120Z,-2.30
2018-12-21T21:28:51.262Z,-2.20
2018-12-21T21:31:18.451Z,-2.20
2018-12-21T21:33:45.585Z,-2.10
2018-12-21T21:36:13.335Z,-2.20
2018-12-21T21:38:41.044Z,-2.10
2018-12-21T21:41:07.789Z,-2.10
2018-12-21T21:43:34.477Z,-2.20
2018-12-21T21:46:01.663Z,-2.20
2018-12-21T21:48:28.765Z,-2.20
2018-12-21T21:50:55.444Z,-2.10
2018-12-21T21:53:22.245Z,-2.20
2018-12-21T21:55:49.593Z,-2.20
2018-12-21T21:58:17.162Z,-2.10
2018-12-21T22:00:44.076Z,-2.10
2018-12-21T22:03:11.599Z,-2.20
2018-12-21T22:05:38.281Z,-2.20
2018-12-21T22:08:05.676Z,-2.10
2018-12-21T22:10:32.478Z,-2.10
2018-12-21T22:12:59.927Z,-2.20
2018-12-21T22:15:27.349Z,-2.20
2018-12-21T22:17:54.045Z,-2.30
2018-12-21T22:20:21.430Z,-2.20
2018-12-21T22:22:48.306Z,-2.20
2018-12-21T22:25:15.049Z,-2.20
2018-12-21T22:27:47.939Z,-2.20
2018-12-21T22:30:08.566Z,-2.20
2018-12-21T22:32:35.305Z,-2.20
2018-12-21T22:35:02.730Z,-2.20
2018-12-21T22:37:29.398Z,-2.20
2018-12-21T22:39:56.989Z,-2.30
2018-12-21T22:42:23.657Z,-2.30
2018-12-21T22:44:51.071Z,-2.20
2018-12-21T22:47:17.792Z,-2.10
2018-12-21T22:49:44.504Z,-2.10
2018-12-21T22:52:11.249Z,-2.20
2018-12-21T22:54:38.683Z,-2.30
2018-12-21T22:57:05.346Z,-2.30
2018-12-21T22:59:32.024Z,-2.30
2018-12-21T23:01:58.719Z,-2.30
2018-12-21T23:04:25.479Z,-2.30
2018-12-21T23:06:52.857Z,-2.30
2018-12-21T23:09:19.614Z,-2.30
2018-12-21T23:11:46.409Z,-2.40
2018-12-21T23:14:13.831Z,-2.30
2018-12-21T23:16:40.525Z,-2.40
2018-12-21T23:19:07.197Z,-2.40
2018-12-21T23:21:34.643Z,-2.50
2018-12-21T23:24:01.394Z,-2.50
2018-12-21T23:26:28.110Z,-2.50
2018-12-21T23:28:54.779Z,-2.50
2018-12-21T23:31:21.489Z,-2.50
2018-12-21T23:33:48.182Z,-2.50
2018-12-21T23:36:15.699Z,-2.50
2018-12-21T23:38:42.470Z,-2.40
2018-12-21T23:41:09.131Z,-2.30
2018-12-21T23:43:43.236Z,-2.30
2018-12-21T23:46:03.424Z,-2.30
2018-12-21T23:48:30.271Z,-2.30
2018-12-21T23:50:57.044Z,-2.30
2018-12-21T23:53:23.892Z,-2.30
2018-12-21T23:55:50.551Z,-2.30
2018-12-21T23:58:17.193Z,-2.30
